Time;durP1;ratioP1;P1;durP2;ratioP2;P2;SDS_P1;SDS_P2;PMS_P1;PMS_P2;Temp;Humidity;BMP_temperature;BMP_pressure;BME280_temperature;BME280_humidity;BME280_pressure;Samples;Min_cycle;Max_cycle;Signal;HPM_P1;HPM_P2
2022/11/19 00:01:50;;;;;;;12.13;2.85;;;9.90;99.90;;;;;;5137407;27;20044;-62
2022/11/19 00:04:17;;;;;;;15.48;3.20;;;9.90;99.90;;;;;;5132723;27;20482;-64
2022/11/19 00:06:44;;;;;;;10.85;3.40;;;9.80;99.90;;;;;;5124059;27;20114;-64
2022/11/19 00:09:13;;;;;;;12.40;3.30;;;9.80;99.90;;;;;;5116819;27;20410;-64
2022/11/19 00:14:25;;;;;;;12.93;4.43;;;9.80;99.90;;;;;;5133239;27;20050;-63
2022/11/19 00:16:52;;;;;;;13.10;3.72;;;9.80;99.90;;;;;;5131027;27;20451;-64
2022/11/19 00:19:18;;;;;;;10.98;3.38;;;9.80;99.90;;;;;;5136956;27;20496;-64
2022/11/19 00:21:47;;;;;;;11.23;3.38;;;9.90;99.90;;;;;;5118217;27;20061;-63
2022/11/19 00:24:14;;;;;;;11.30;2.85;;;9.80;99.90;;;;;;5117179;27;20114;-63
2022/11/19 00:26:41;;;;;;;10.32;2.78;;;9.80;99.90;;;;;;5136344;27;20078;-64
2022/11/19 00:29:07;;;;;;;12.23;3.00;;;9.80;99.90;;;;;;5118335;27;20126;-63
2022/11/19 00:31:34;;;;;;;9.23;3.03;;;9.80;99.90;;;;;;5118096;27;20074;-64
2022/11/19 00:34:01;;;;;;;12.98;3.17;;;9.80;99.90;;;;;;5136338;27;20039;-63
2022/11/19 00:36:28;;;;;;;11.73;3.20;;;9.80;99.90;;;;;;5129962;27;20118;-64
2022/11/19 00:38:55;;;;;;;13.95;3.05;;;9.80;99.90;;;;;;5136406;27;20111;-63
2022/11/19 00:41:21;;;;;;;10.43;3.33;;;9.80;99.90;;;;;;5136323;27;20044;-63
2022/11/19 00:43:49;;;;;;;12.20;3.00;;;9.80;99.90;;;;;;5117533;27;20035;-65
2022/11/19 00:46:15;;;;;;;10.80;2.85;;;9.80;99.90;;;;;;5136000;27;20040;-62
2022/11/19 00:48:42;;;;;;;10.25;2.83;;;9.80;99.90;;;;;;5135909;27;20113;-65
2022/11/19 00:51:09;;;;;;;8.75;2.28;;;9.80;99.90;;;;;;5135197;27;20435;-62
2022/11/19 00:53:36;;;;;;;11.80;2.58;;;9.80;99.90;;;;;;5136014;27;20070;-65
2022/11/19 00:56:02;;;;;;;13.20;2.90;;;9.80;99.90;;;;;;5135992;27;20494;-63
2022/11/19 00:58:29;;;;;;;13.80;2.67;;;9.80;99.90;;;;;;5135999;27;20531;-64
2022/11/19 01:00:56;;;;;;;9.10;2.80;;;9.80;99.90;;;;;;5129557;27;20474;-63
2022/11/19 01:03:22;;;;;;;9.98;2.53;;;9.80;99.90;;;;;;5135215;27;20154;-64
2022/11/19 01:05:49;;;;;;;8.35;2.42;;;9.80;99.90;;;;;;5135484;27;20043;-64
2022/11/19 01:08:16;;;;;;;9.95;2.78;;;9.70;99.90;;;;;;5135826;27;20045;-63
2022/11/19 01:10:43;;;;;;;14.27;2.65;;;9.70;99.90;;;;;;5135734;27;20122;-63
2022/11/19 01:15:55;;;;;;;11.50;2.63;;;9.70;99.90;;;;;;5135701;27;20043;-64
2022/11/19 01:18:21;;;;;;;9.98;2.33;;;9.70;99.90;;;;;;5129357;27;20047;-63
2022/11/19 01:20:48;;;;;;;11.90;3.40;;;9.70;99.90;;;;;;5135465;27;20073;-66
2022/11/19 01:23:15;;;;;;;10.15;2.30;;;9.70;99.90;;;;;;5135647;27;20046;-64
2022/11/19 01:25:42;;;;;;;11.05;2.33;;;9.70;99.90;;;;;;5135212;27;20084;-65
2022/11/19 01:28:08;;;;;;;9.95;2.90;;;9.70;99.90;;;;;;5135408;27;20095;-64
2022/11/19 01:30:35;;;;;;;10.82;2.92;;;9.70;99.90;;;;;;5135233;27;20047;-64
2022/11/19 01:33:02;;;;;;;10.00;2.50;;;9.70;99.90;;;;;;5135229;27;20123;-63
2022/11/19 01:35:29;;;;;;;8.23;2.47;;;9.70;99.90;;;;;;5134882;27;20072;-64
2022/11/19 01:37:55;;;;;;;9.75;2.10;;;9.70;99.90;;;;;;5135479;27;20043;-65
2022/11/19 01:40:22;;;;;;;10.55;2.28;;;9.70;99.90;;;;;;5135037;27;20104;-64
2022/11/19 01:42:49;;;;;;;12.68;2.65;;;9.70;99.90;;;;;;5134976;27;20455;-62
2022/11/19 01:45:16;;;;;;;9.82;2.22;;;9.70;99.90;;;;;;5135133;27;20050;-66
2022/11/19 01:47:42;;;;;;;11.80;2.40;;;9.70;99.90;;;;;;5134916;27;20043;-65
2022/11/19 01:50:09;;;;;;;12.20;2.92;;;9.70;99.90;;;;;;5135005;27;20501;-66
2022/11/19 01:52:36;;;;;;;11.02;2.22;;;9.70;99.90;;;;;;5135055;27;20074;-66
2022/11/19 01:55:03;;;;;;;9.32;2.72;;;9.60;99.90;;;;;;5134932;27;20038;-68
2022/11/19 01:57:29;;;;;;;10.15;2.20;;;9.60;99.90;;;;;;5134775;27;20130;-66
2022/11/19 01:59:56;;;;;;;11.45;2.42;;;9.60;99.90;;;;;;5134968;27;20480;-64
2022/11/19 02:02:23;;;;;;;10.27;2.08;;;9.60;99.90;;;;;;5134938;27;20081;-63
2022/11/19 02:04:52;;;;;;;10.88;2.13;;;9.50;99.90;;;;;;5133995;27;20059;-62
2022/11/19 02:07:21;;;;;;;10.35;2.50;;;9.50;99.90;;;;;;5134886;27;20039;-65
2022/11/19 02:09:48;;;;;;;12.50;1.98;;;9.50;99.90;;;;;;5134848;27;20181;-66
2022/11/19 02:12:15;;;;;;;8.18;2.20;;;9.50;99.90;;;;;;5134836;27;20039;-65
2022/11/19 02:14:41;;;;;;;11.18;2.60;;;9.50;99.90;;;;;;5134467;27;20135;-64
2022/11/19 02:17:08;;;;;;;13.75;2.55;;;9.50;99.90;;;;;;5134617;27;20046;-64
2022/11/19 02:19:35;;;;;;;7.97;2.35;;;9.50;99.90;;;;;;5134574;27;20398;-63
2022/11/19 02:22:02;;;;;;;13.35;2.53;;;9.50;99.90;;;;;;5116134;27;20402;-65
2022/11/19 02:24:28;;;;;;;8.98;2.50;;;9.50;99.90;;;;;;5134320;27;20466;-64
2022/11/19 02:26:55;;;;;;;11.82;2.53;;;9.50;99.90;;;;;;5134265;27;20060;-65
2022/11/19 02:29:22;;;;;;;9.93;2.80;;;9.50;99.90;;;;;;5134398;27;20400;-63
2022/11/19 02:31:49;;;;;;;5.88;2.05;;;9.40;99.90;;;;;;5115999;27;20039;-65
2022/11/19 02:34:15;;;;;;;11.95;2.80;;;9.40;99.90;;;;;;5127580;27;20556;-64
2022/11/19 02:36:42;;;;;;;11.02;2.83;;;9.40;99.90;;;;;;5134522;27;20067;-65
2022/11/19 02:39:09;;;;;;;11.65;2.53;;;9.30;99.90;;;;;;5134303;27;20066;-64
2022/11/19 02:41:36;;;;;;;7.70;2.42;;;9.30;99.90;;;;;;5115826;28;20075;-64
2022/11/19 02:46:48;;;;;;;8.90;2.30;;;9.20;99.90;;;;;;5135267;27;20043;-66
2022/11/19 02:49:14;;;;;;;11.60;2.58;;;9.20;99.90;;;;;;5138650;27;20130;-65
2022/11/19 02:51:41;;;;;;;9.57;2.55;;;9.10;99.90;;;;;;5138351;27;20027;-66
2022/11/19 02:54:08;;;;;;;10.57;2.83;;;9.10;99.90;;;;;;5138457;27;20070;-63
2022/11/19 02:56:35;;;;;;;14.38;2.35;;;9.00;99.90;;;;;;5138320;27;20075;-65
2022/11/19 03:04:32;;;;;;;14.05;2.80;;;8.90;99.90;;;;;;5137418;27;20120;-64
2022/11/19 03:06:59;;;;;;;8.40;2.53;;;8.90;99.90;;;;;;5138425;27;20114;-65
2022/11/19 03:09:26;;;;;;;8.82;2.10;;;8.90;99.90;;;;;;5138027;27;20088;-63
2022/11/19 03:11:53;;;;;;;8.95;2.78;;;8.90;99.90;;;;;;5138150;27;20050;-63
2022/11/19 03:17:05;;;;;;;11.35;2.83;;;8.80;99.90;;;;;;5137972;27;20513;-65
2022/11/19 03:19:31;;;;;;;8.68;2.40;;;8.80;99.90;;;;;;5137992;27;20039;-65
2022/11/19 03:21:58;;;;;;;11.80;2.80;;;8.70;99.90;;;;;;5137834;27;20505;-64
2022/11/19 03:24:25;;;;;;;12.73;2.78;;;8.70;99.90;;;;;;5137967;27;20035;-63
2022/11/19 03:26:51;;;;;;;10.10;2.60;;;8.70;99.90;;;;;;5137784;27;20043;-66
2022/11/19 03:29:18;;;;;;;14.50;2.63;;;8.60;99.90;;;;;;5137552;27;20167;-64
2022/11/19 03:31:46;;;;;;;12.32;2.63;;;8.60;99.90;;;;;;5137827;27;20035;-64
2022/11/19 03:34:13;;;;;;;13.05;3.10;;;8.70;99.90;;;;;;5137712;27;20112;-65
2022/11/19 03:36:39;;;;;;;9.00;2.58;;;8.60;99.90;;;;;;5137119;27;20081;-62
2022/11/19 03:39:06;;;;;;;11.43;2.80;;;8.60;99.90;;;;;;5136792;27;20146;-64
2022/11/19 03:41:33;;;;;;;5.78;2.50;;;8.70;99.90;;;;;;5136659;27;20054;-63
2022/11/19 03:43:59;;;;;;;8.95;2.95;;;8.70;99.90;;;;;;5137190;27;20039;-63
2022/11/19 03:46:26;;;;;;;9.90;2.65;;;8.70;99.90;;;;;;5137138;27;20042;-62
2022/11/19 03:48:53;;;;;;;11.15;2.45;;;8.70;99.90;;;;;;5137248;27;20038;-64
2022/11/19 03:51:20;;;;;;;9.32;2.38;;;8.80;99.90;;;;;;5137610;27;20062;-63
2022/11/19 03:53:46;;;;;;;11.85;3.05;;;8.70;99.90;;;;;;5137113;27;20490;-65
2022/11/19 03:56:13;;;;;;;9.15;2.35;;;8.70;99.90;;;;;;5118811;27;20074;-66
2022/11/19 03:58:40;;;;;;;13.95;2.38;;;8.80;99.90;;;;;;5118889;27;20072;-64
2022/11/19 04:01:06;;;;;;;9.60;2.25;;;8.70;99.90;;;;;;5136948;27;20553;-64
2022/11/19 04:03:33;;;;;;;9.18;2.38;;;8.70;99.90;;;;;;5136215;27;20047;-65
2022/11/19 04:06:00;;;;;;;8.55;2.30;;;8.80;99.90;;;;;;5136406;27;20101;-63
2022/11/19 04:08:27;;;;;;;10.93;2.40;;;8.80;99.90;;;;;;5136507;27;20044;-64
2022/11/19 04:10:53;;;;;;;11.32;3.03;;;8.80;99.90;;;;;;5130132;27;20031;-64
2022/11/19 04:13:20;;;;;;;11.20;2.78;;;8.80;99.90;;;;;;5111847;27;20043;-65
2022/11/19 04:15:47;;;;;;;9.18;2.40;;;8.80;99.90;;;;;;5136891;27;20036;-64
2022/11/19 04:18:13;;;;;;;10.48;2.33;;;8.80;99.90;;;;;;5136725;27;20039;-64
2022/11/19 04:20:40;;;;;;;9.65;3.00;;;8.80;99.90;;;;;;5136825;27;20459;-64
2022/11/19 04:23:07;;;;;;;11.43;2.50;;;8.80;99.90;;;;;;5118591;27;20122;-63
2022/11/19 04:25:34;;;;;;;10.27;2.25;;;8.80;99.90;;;;;;5136579;27;20106;-63
2022/11/19 04:28:00;;;;;;;8.43;2.35;;;8.80;99.90;;;;;;5136202;27;20043;-65
2022/11/19 04:30:28;;;;;;;12.35;2.55;;;8.80;99.90;;;;;;5136649;27;20123;-62
2022/11/19 04:32:55;;;;;;;8.38;2.40;;;8.80;99.90;;;;;;5136748;27;20080;-65
2022/11/19 04:35:22;;;;;;;12.45;2.90;;;8.80;99.90;;;;;;5117809;27;20035;-65
2022/11/19 04:37:49;;;;;;;9.27;2.47;;;8.80;99.90;;;;;;5136277;27;20489;-64
2022/11/19 04:40:15;;;;;;;10.10;2.38;;;8.80;99.90;;;;;;5118204;27;20082;-64
2022/11/19 04:42:42;;;;;;;10.63;2.55;;;8.80;99.90;;;;;;5136325;27;20122;-63
2022/11/19 04:45:09;;;;;;;15.82;3.63;;;8.80;99.90;;;;;;5136124;27;20179;-65
2022/11/19 04:47:36;;;;;;;11.05;2.70;;;8.80;99.90;;;;;;5135207;27;20062;-63
2022/11/19 04:50:03;;;;;;;13.20;2.75;;;8.80;99.90;;;;;;5136055;27;20066;-65
2022/11/19 04:52:30;;;;;;;15.10;2.42;;;8.80;99.90;;;;;;5136064;27;20040;-65
2022/11/19 04:55:01;;;;;;;10.57;2.75;;;8.80;99.90;;;;;;5135974;27;20508;-65
2022/11/19 04:57:28;;;;;;;10.45;2.55;;;8.80;99.90;;;;;;5117135;27;20043;-64
2022/11/19 04:59:55;;;;;;;10.23;2.83;;;8.80;99.90;;;;;;5135967;27;20043;-65
2022/11/19 05:02:22;;;;;;;9.05;2.22;;;8.80;99.90;;;;;;5135913;27;20055;-64
2022/11/19 05:04:49;;;;;;;11.13;2.60;;;8.80;99.90;;;;;;5134763;27;20047;-66
2022/11/19 05:07:16;;;;;;;10.55;2.67;;;8.80;99.90;;;;;;5135745;27;20047;-66
2022/11/19 05:09:43;;;;;;;10.60;2.70;;;8.80;99.90;;;;;;5135220;27;20502;-62
2022/11/19 05:12:10;;;;;;;7.68;2.13;;;8.80;99.90;;;;;;5115138;27;20039;-64
2022/11/19 05:14:37;;;;;;;11.05;2.70;;;8.80;99.90;;;;;;5135630;27;20043;-63
2022/11/19 05:17:04;;;;;;;11.75;2.70;;;8.80;99.90;;;;;;5135635;27;20130;-65
2022/11/19 05:19:30;;;;;;;8.90;2.33;;;8.70;99.90;;;;;;5117238;27;20517;-64
2022/11/19 05:21:57;;;;;;;7.47;2.40;;;8.80;99.90;;;;;;5117227;27;20054;-64
2022/11/19 05:24:24;;;;;;;10.18;2.83;;;8.80;99.90;;;;;;5135614;27;20085;-65
2022/11/19 05:26:50;;;;;;;9.05;2.72;;;8.80;99.90;;;;;;5135284;27;20032;-63
2022/11/19 05:29:17;;;;;;;6.63;2.00;;;8.80;99.90;;;;;;5135413;27;20096;-65
2022/11/19 05:31:44;;;;;;;11.98;2.10;;;8.80;99.90;;;;;;5135314;27;20044;-64
2022/11/19 05:34:11;;;;;;;10.40;2.60;;;8.80;99.90;;;;;;5135020;27;20110;-63
2022/11/19 05:36:38;;;;;;;8.68;2.92;;;8.80;99.90;;;;;;5135044;27;20096;-62
2022/11/19 05:39:05;;;;;;;10.48;2.60;;;8.80;99.90;;;;;;5135180;27;20482;-65
2022/11/19 05:41:32;;;;;;;9.43;2.35;;;8.80;99.90;;;;;;5135258;27;20585;-62
2022/11/19 05:43:58;;;;;;;8.60;2.05;;;8.90;99.90;;;;;;5135202;27;20088;-63
2022/11/19 05:46:25;;;;;;;10.52;2.67;;;8.80;99.90;;;;;;5116444;27;20043;-64
2022/11/19 05:48:52;;;;;;;6.93;2.00;;;8.80;99.90;;;;;;5134835;27;20035;-64
2022/11/19 05:51:19;;;;;;;14.35;2.60;;;8.80;99.90;;;;;;5134811;27;20043;-67
2022/11/19 05:53:45;;;;;;;12.95;2.40;;;8.80;99.90;;;;;;5134953;27;20050;-65
2022/11/19 05:56:12;;;;;;;12.35;2.78;;;8.80;99.90;;;;;;5134643;27;20032;-66
2022/11/19 05:58:39;;;;;;;12.20;2.08;;;8.90;99.90;;;;;;5134813;27;20050;-64
2022/11/19 06:01:06;;;;;;;12.25;2.28;;;8.90;99.90;;;;;;5134772;27;20043;-65
2022/11/19 06:03:32;;;;;;;7.90;2.35;;;8.90;99.90;;;;;;5133868;27;20043;-64
2022/11/19 06:05:59;;;;;;;11.00;2.63;;;8.90;99.90;;;;;;5127621;27;20113;-63
2022/11/19 06:08:26;;;;;;;11.00;2.45;;;8.90;99.90;;;;;;5127743;27;20467;-64
2022/11/19 06:10:52;;;;;;;11.57;2.30;;;8.90;99.90;;;;;;5134638;27;20122;-65
2022/11/19 06:13:19;;;;;;;12.85;2.47;;;8.90;99.90;;;;;;5134672;27;20070;-64
2022/11/19 06:15:46;;;;;;;10.00;2.63;;;8.90;99.90;;;;;;5112787;27;20482;-64
2022/11/19 06:18:12;;;;;;;10.55;3.60;;;8.90;99.90;;;;;;5134423;27;20046;-63
2022/11/19 06:20:39;;;;;;;9.48;2.25;;;8.90;99.90;;;;;;5115582;28;20091;-65
2022/11/19 06:23:06;;;;;;;7.53;2.30;;;8.90;99.90;;;;;;5134312;27;20121;-63
2022/11/19 06:25:33;;;;;;;7.53;2.65;;;9.00;99.90;;;;;;5134276;27;20035;-65
2022/11/19 06:28:00;;;;;;;10.60;2.33;;;8.90;99.90;;;;;;5133806;27;20064;-62
2022/11/19 06:30:27;;;;;;;10.63;2.60;;;9.00;99.90;;;;;;5134364;27;20067;-68
2022/11/19 06:32:54;;;;;;;10.52;2.10;;;8.90;99.90;;;;;;5134365;27;20099;-64
2022/11/19 06:35:20;;;;;;;9.75;2.25;;;8.90;99.90;;;;;;5134381;27;20054;-64
2022/11/19 06:37:47;;;;;;;9.82;2.53;;;8.90;99.90;;;;;;5134093;27;20066;-63
2022/11/19 06:40:14;;;;;;;9.30;2.05;;;8.90;99.90;;;;;;5134490;27;20051;-64
2022/11/19 06:42:40;;;;;;;9.00;2.10;;;8.90;99.90;;;;;;5127477;28;20371;-63
2022/11/19 06:45:08;;;;;;;8.02;1.80;;;8.90;99.90;;;;;;5133312;27;20063;-64
2022/11/19 06:47:35;;;;;;;11.90;2.05;;;8.90;99.90;;;;;;5133382;28;20099;-65
2022/11/19 06:50:01;;;;;;;8.00;2.20;;;9.00;99.90;;;;;;5134225;28;20074;-65
2022/11/19 06:52:28;;;;;;;7.55;2.03;;;8.90;99.90;;;;;;5134054;28;20077;-66
2022/11/19 06:54:55;;;;;;;7.10;1.95;;;8.90;99.90;;;;;;5133971;27;20040;-63
2022/11/19 06:57:21;;;;;;;8.43;1.80;;;8.90;99.90;;;;;;5134036;28;20396;-63
2022/11/19 06:59:48;;;;;;;14.07;2.53;;;8.90;99.90;;;;;;5134208;28;20047;-64
2022/11/19 07:02:15;;;;;;;7.22;2.08;;;8.90;99.90;;;;;;5134225;28;20096;-64
2022/11/19 07:04:47;;;;;;;10.73;2.60;;;8.90;99.90;;;;;;5133054;28;20040;-64
2022/11/19 07:07:13;;;;;;;11.80;2.47;;;8.90;99.90;;;;;;5133881;28;20118;-62
2022/11/19 07:09:40;;;;;;;14.35;2.22;;;8.90;99.90;;;;;;5134049;28;20031;-64
2022/11/19 07:12:07;;;;;;;9.80;1.70;;;8.90;99.90;;;;;;5133725;28;20035;-67
2022/11/19 07:14:34;;;;;;;13.93;2.50;;;9.00;99.90;;;;;;5133771;27;20104;-64
2022/11/19 07:17:01;;;;;;;10.68;2.20;;;8.90;99.90;;;;;;5134208;28;20100;-64
2022/11/19 07:19:28;;;;;;;8.38;2.10;;;9.00;99.90;;;;;;5133824;28;20520;-65
2022/11/19 07:21:54;;;;;;;6.68;2.00;;;9.00;99.90;;;;;;5133843;28;20440;-65
2022/11/19 07:24:21;;;;;;;7.43;2.20;;;9.00;99.90;;;;;;5133678;27;20073;-63
2022/11/19 07:26:48;;;;;;;10.70;2.38;;;9.00;99.90;;;;;;5133564;28;20047;-65
2022/11/19 07:29:14;;;;;;;11.63;2.35;;;9.00;99.90;;;;;;5115142;28;20486;-66
2022/11/19 07:31:41;;;;;;;7.50;1.95;;;9.00;99.90;;;;;;5134031;27;20043;-62
2022/11/19 07:34:08;;;;;;;7.13;1.80;;;9.00;99.90;;;;;;5137666;27;20404;-64
2022/11/19 07:36:35;;;;;;;9.90;2.20;;;9.00;99.90;;;;;;5137690;27;20039;-62
2022/11/19 07:39:02;;;;;;;7.47;2.17;;;9.00;99.90;;;;;;5119239;27;20096;-65
2022/11/19 07:44:14;;;;;;;11.90;2.55;;;9.00;99.90;;;;;;5137507;27;20095;-66
2022/11/19 07:46:41;;;;;;;10.73;2.50;;;9.00;99.90;;;;;;5137332;27;20100;-65
2022/11/19 07:49:07;;;;;;;10.07;2.13;;;9.00;99.90;;;;;;5137462;27;20068;-64
2022/11/19 07:51:34;;;;;;;9.65;2.17;;;9.00;99.90;;;;;;5137150;27;20088;-63
2022/11/19 07:54:01;;;;;;;11.98;2.10;;;9.00;99.90;;;;;;5137109;27;20114;-63
2022/11/19 07:56:27;;;;;;;9.50;2.20;;;9.00;99.90;;;;;;5137169;27;20065;-62
2022/11/19 07:58:54;;;;;;;9.73;2.42;;;9.00;99.90;;;;;;5137082;27;20047;-64
2022/11/19 08:01:21;;;;;;;9.93;2.20;;;9.00;99.90;;;;;;5136965;27;20446;-64
2022/11/19 08:03:48;;;;;;;9.07;2.42;;;9.10;99.90;;;;;;5137162;27;20091;-64
2022/11/19 08:06:21;;;;;;;11.30;2.58;;;9.00;99.90;;;;;;5136720;27;20055;-66
2022/11/19 08:08:48;;;;;;;8.07;2.78;;;9.10;99.90;;;;;;5136775;27;20058;-65
2022/11/19 08:11:15;;;;;;;9.23;2.63;;;9.10;99.90;;;;;;5118966;27;20043;-65
2022/11/19 08:13:41;;;;;;;8.48;2.33;;;9.10;99.90;;;;;;5136910;27;20452;-64
2022/11/19 08:16:08;;;;;;;7.72;2.20;;;9.10;99.90;;;;;;5135847;27;20031;-63
2022/11/19 08:18:35;;;;;;;7.25;2.15;;;9.10;99.90;;;;;;5137057;27;20073;-66
2022/11/19 08:21:02;;;;;;;12.88;2.30;;;9.20;99.90;;;;;;5136742;27;20114;-63
2022/11/19 08:23:28;;;;;;;8.27;1.98;;;9.20;99.90;;;;;;5136884;27;20470;-64
2022/11/19 08:25:55;;;;;;;12.15;2.28;;;9.20;99.90;;;;;;5136648;27;20043;-65
2022/11/19 08:28:22;;;;;;;11.48;2.30;;;9.20;99.90;;;;;;5136420;27;20066;-66
2022/11/19 08:30:49;;;;;;;8.68;2.55;;;9.20;99.90;;;;;;5136419;27;20497;-66
2022/11/19 08:33:15;;;;;;;11.52;1.90;;;9.20;99.90;;;;;;5136880;27;20538;-64
2022/11/19 08:35:42;;;;;;;7.82;1.90;;;9.20;99.90;;;;;;5134844;27;20076;-65
2022/11/19 08:38:09;;;;;;;8.45;2.30;;;9.20;99.90;;;;;;5136448;27;20051;-63
2022/11/19 08:40:35;;;;;;;9.15;2.33;;;9.20;99.90;;;;;;5136332;27;20067;-65
2022/11/19 08:43:02;;;;;;;11.48;2.22;;;9.30;99.90;;;;;;5136177;27;20092;-66
2022/11/19 08:45:29;;;;;;;10.18;2.45;;;9.30;99.90;;;;;;5135273;27;20046;-65
2022/11/19 08:47:56;;;;;;;9.60;2.55;;;9.30;99.90;;;;;;5134905;27;20096;-63
2022/11/19 08:50:23;;;;;;;11.90;2.13;;;9.40;99.90;;;;;;5135874;27;20035;-65
2022/11/19 08:52:50;;;;;;;11.68;2.35;;;9.40;99.90;;;;;;5117476;27;20052;-63
2022/11/19 08:55:16;;;;;;;8.13;2.83;;;9.40;99.90;;;;;;5134419;27;20032;-65
2022/11/19 08:57:43;;;;;;;11.43;3.00;;;9.50;99.90;;;;;;5135780;27;20038;-62
2022/11/19 09:00:10;;;;;;;10.05;2.95;;;9.50;99.90;;;;;;5117432;27;20391;-63
2022/11/19 09:02:37;;;;;;;13.57;3.22;;;9.50;99.90;;;;;;5135630;27;20043;-63
2022/11/19 09:05:03;;;;;;;9.73;2.72;;;9.50;99.90;;;;;;5134492;27;20089;-63
2022/11/19 09:07:30;;;;;;;11.07;2.90;;;9.50;99.90;;;;;;5134922;27;20104;-63
2022/11/19 09:09:57;;;;;;;11.82;2.67;;;9.50;99.90;;;;;;5135571;27;20039;-66
2022/11/19 09:12:24;;;;;;;10.65;2.50;;;9.50;99.90;;;;;;5135487;27;20482;-64
2022/11/19 09:14:50;;;;;;;9.77;2.28;;;9.50;99.90;;;;;;5135446;27;20035;-65
2022/11/19 09:17:17;;;;;;;9.25;2.25;;;9.50;99.90;;;;;;5131020;27;20067;-62
2022/11/19 09:19:44;;;;;;;7.82;2.13;;;9.60;99.90;;;;;;5130915;27;20573;-64
2022/11/19 09:22:11;;;;;;;13.57;2.20;;;9.60;99.90;;;;;;5133512;27;20088;-67
2022/11/19 09:24:37;;;;;;;9.45;2.35;;;9.60;99.90;;;;;;5128159;27;20440;-65
2022/11/19 09:27:04;;;;;;;9.25;2.38;;;9.70;99.90;;;;;;5116705;27;20042;-65
2022/11/19 09:29:31;;;;;;;12.45;2.40;;;9.70;99.90;;;;;;5134996;27;20440;-64
2022/11/19 09:31:58;;;;;;;11.40;2.20;;;9.80;99.90;;;;;;5134806;27;20153;-64
2022/11/19 09:34:24;;;;;;;10.38;2.35;;;9.80;99.90;;;;;;5134737;27;20100;-65
2022/11/19 09:36:51;;;;;;;11.45;2.72;;;9.80;99.90;;;;;;5134080;27;20039;-66
2022/11/19 09:39:18;;;;;;;12.10;2.47;;;9.80;99.90;;;;;;5134702;27;20077;-64
2022/11/19 09:41:45;;;;;;;13.38;2.70;;;9.80;99.90;;;;;;5134722;27;20482;-64
2022/11/19 09:44:12;;;;;;;9.50;2.55;;;9.80;99.90;;;;;;5134619;27;20390;-66
2022/11/19 09:46:39;;;;;;;9.13;2.42;;;9.90;99.90;;;;;;5134878;27;20050;-65
2022/11/19 09:49:05;;;;;;;12.27;3.83;;;9.90;99.90;;;;;;5134344;27;20041;-66
2022/11/19 09:51:32;;;;;;;13.52;3.05;;;9.90;99.90;;;;;;5134646;27;20039;-64
2022/11/19 09:53:59;;;;;;;11.73;2.70;;;9.90;99.90;;;;;;5134570;27;20074;-64
2022/11/19 09:56:25;;;;;;;11.40;2.65;;;9.90;99.90;;;;;;5134382;27;20039;-63
2022/11/19 09:58:52;;;;;;;11.65;3.00;;;10.00;99.90;;;;;;5134192;27;20043;-63
2022/11/19 10:01:19;;;;;;;11.10;2.35;;;10.00;99.90;;;;;;5134463;27;20448;-62
2022/11/19 10:03:46;;;;;;;10.85;2.45;;;10.00;99.90;;;;;;5134554;27;20043;-64
2022/11/19 10:06:13;;;;;;;10.82;2.40;;;10.10;99.90;;;;;;5133570;27;20055;-65
2022/11/19 10:08:40;;;;;;;8.80;2.28;;;10.00;99.90;;;;;;5116259;27;20424;-64
2022/11/19 10:11:06;;;;;;;9.70;2.25;;;10.00;99.90;;;;;;5134654;27;20043;-67
2022/11/19 10:13:33;;;;;;;8.27;1.98;;;10.10;99.90;;;;;;5134159;27;20045;-67
2022/11/19 10:16:00;;;;;;;12.75;3.20;;;10.10;99.90;;;;;;5111458;27;20114;-63
2022/11/19 10:18:26;;;;;;;9.02;2.13;;;10.10;99.90;;;;;;5133926;27;20478;-66
2022/11/19 10:20:53;;;;;;;9.85;2.45;;;10.20;99.90;;;;;;5134160;27;20055;-66
2022/11/19 10:23:20;;;;;;;8.35;2.63;;;10.10;99.90;;;;;;5134081;27;21024;-65
2022/11/19 10:25:47;;;;;;;13.07;2.70;;;10.20;99.90;;;;;;5134025;27;20047;-66
2022/11/19 10:28:14;;;;;;;8.68;2.78;;;10.20;99.90;;;;;;5134109;27;20050;-69
2022/11/19 10:30:40;;;;;;;11.25;2.55;;;10.30;99.90;;;;;;5134146;27;20482;-66
2022/11/19 10:33:07;;;;;;;12.98;2.35;;;10.30;99.90;;;;;;5133670;27;20114;-65
2022/11/19 10:35:34;;;;;;;10.02;2.30;;;10.40;99.90;;;;;;5133801;27;20096;-66
2022/11/19 10:38:01;;;;;;;10.52;2.38;;;10.40;99.90;;;;;;5134136;27;20043;-66
2022/11/19 10:40:27;;;;;;;10.15;3.90;;;10.40;99.90;;;;;;5115848;27;20039;-65
2022/11/19 10:42:54;;;;;;;7.72;2.10;;;10.50;99.90;;;;;;5133844;27;20081;-66
2022/11/19 10:45:21;;;;;;;11.10;2.60;;;10.50;99.90;;;;;;5115506;28;20054;-67
2022/11/19 10:47:48;;;;;;;9.07;2.58;;;10.50;99.90;;;;;;5133950;28;20050;-65
2022/11/19 10:50:14;;;;;;;10.65;2.97;;;10.50;99.90;;;;;;5134273;28;20039;-64
2022/11/19 10:52:41;;;;;;;7.72;2.33;;;10.50;99.90;;;;;;5115935;28;20077;-64
2022/11/19 10:55:08;;;;;;;11.00;2.38;;;10.60;99.90;;;;;;5133610;27;20082;-68
2022/11/19 10:57:34;;;;;;;11.35;2.72;;;10.60;99.90;;;;;;5115530;28;20042;-64
2022/11/19 11:00:01;;;;;;;14.60;3.03;;;10.60;99.90;;;;;;5133829;28;20043;-66
2022/11/19 11:02:28;;;;;;;9.48;2.78;;;10.70;99.90;;;;;;5134084;28;20050;-65
2022/11/19 11:04:55;;;;;;;14.57;2.83;;;10.60;99.90;;;;;;5112278;28;20051;-65
2022/11/19 11:07:22;;;;;;;12.98;2.72;;;10.60;99.90;;;;;;5110521;27;20122;-66
2022/11/19 11:09:48;;;;;;;11.73;2.50;;;10.60;99.90;;;;;;5132123;27;20070;-65
2022/11/19 11:15:01;;;;;;;8.93;2.45;;;10.60;99.90;;;;;;5137584;27;20043;-65
2022/11/19 11:17:27;;;;;;;10.43;2.40;;;10.60;99.90;;;;;;5119200;27;20089;-65
2022/11/19 11:19:54;;;;;;;10.90;2.70;;;10.60;99.90;;;;;;5137765;27;20126;-62
2022/11/19 11:22:21;;;;;;;8.52;1.85;;;10.60;99.90;;;;;;5137098;27;20046;-66
2022/11/19 11:24:48;;;;;;;8.20;2.55;;;10.60;99.90;;;;;;5137410;27;20039;-65
2022/11/19 11:27:14;;;;;;;9.13;2.67;;;10.70;99.90;;;;;;5119300;27;20126;-63
2022/11/19 11:29:41;;;;;;;12.88;2.60;;;10.80;99.90;;;;;;5137091;27;20036;-63
2022/11/19 11:32:08;;;;;;;12.85;3.05;;;10.80;99.90;;;;;;5137429;27;20043;-65
2022/11/19 11:34:34;;;;;;;13.60;2.53;;;10.90;99.90;;;;;;5137098;27;20428;-62
2022/11/19 11:37:01;;;;;;;7.55;2.08;;;10.90;99.90;;;;;;5133190;27;20478;-64
2022/11/19 11:39:28;;;;;;;15.98;2.20;;;10.90;99.90;;;;;;5137232;27;20096;-64
2022/11/19 11:41:55;;;;;;;7.05;2.30;;;10.80;99.90;;;;;;5131125;27;20104;-65
2022/11/19 11:44:41;;;;;;;6.13;1.83;;;10.80;99.90;;;;;;5133779;27;20409;-65
2022/11/19 11:47:08;;;;;;;11.65;2.88;;;10.70;99.90;;;;;;5137269;27;20416;-63
2022/11/19 11:49:35;;;;;;;9.90;2.35;;;10.80;99.90;;;;;;5136840;27;20135;-66
2022/11/19 11:52:01;;;;;;;10.13;2.67;;;10.90;99.90;;;;;;5137047;27;20068;-62
2022/11/19 11:54:28;;;;;;;12.25;3.00;;;10.90;99.90;;;;;;5137127;27;20088;-64
2022/11/19 11:56:55;;;;;;;6.35;2.17;;;10.90;99.90;;;;;;5136926;27;20412;-63
2022/11/19 11:59:22;;;;;;;8.48;2.58;;;11.00;99.90;;;;;;5118035;27;20130;-63
2022/11/19 12:01:48;;;;;;;9.68;2.28;;;11.00;99.90;;;;;;5136467;27;20049;-67
2022/11/19 12:04:15;;;;;;;9.50;2.45;;;11.00;99.90;;;;;;5135936;27;20078;-64
2022/11/19 12:06:42;;;;;;;12.35;2.58;;;11.10;99.90;;;;;;5118066;27;20130;-64
2022/11/19 12:09:08;;;;;;;8.57;2.08;;;11.10;99.90;;;;;;5118610;27;20039;-66
2022/11/19 12:11:53;;;;;;;10.02;2.28;;;11.10;99.90;;;;;;5136662;27;20036;-66
2022/11/19 12:14:20;;;;;;;10.57;2.53;;;11.20;99.90;;;;;;5118097;27;20039;-64
2022/11/19 12:16:47;;;;;;;9.30;2.50;;;11.20;99.90;;;;;;5136540;27;20042;-66
2022/11/19 12:19:14;;;;;;;6.25;2.20;;;11.20;99.90;;;;;;5135217;27;20047;-66
2022/11/19 12:21:41;;;;;;;5.75;1.85;;;11.20;99.90;;;;;;5136606;27;20051;-64
2022/11/19 12:24:08;;;;;;;8.60;2.05;;;11.20;99.90;;;;;;5135936;27;20039;-64
2022/11/19 12:26:34;;;;;;;8.30;2.08;;;11.20;99.90;;;;;;5136479;27;20043;-64
2022/11/19 12:29:01;;;;;;;10.05;2.55;;;11.30;99.90;;;;;;5136088;27;20125;-65
2022/11/19 12:31:28;;;;;;;6.82;1.88;;;11.30;99.90;;;;;;5136331;27;20096;-63
2022/11/19 12:33:55;;;;;;;8.02;2.20;;;11.30;99.90;;;;;;5136345;27;20039;-64
2022/11/19 12:36:22;;;;;;;8.05;2.30;;;11.30;99.90;;;;;;5135728;27;20036;-63
2022/11/19 12:38:49;;;;;;;10.23;2.40;;;11.30;99.90;;;;;;5135979;27;20095;-68
2022/11/19 12:41:16;;;;;;;6.28;2.70;;;11.30;99.90;;;;;;5117972;27;20075;-63
2022/11/19 12:43:42;;;;;;;8.77;2.42;;;11.30;99.90;;;;;;5135887;27;20525;-65
2022/11/19 12:46:09;;;;;;;8.02;2.67;;;11.30;99.90;;;;;;5135992;27;20047;-65
2022/11/19 12:48:37;;;;;;;7.18;2.22;;;11.40;99.90;;;;;;5135882;27;20035;-64
2022/11/19 12:51:03;;;;;;;14.75;8.38;;;11.40;99.90;;;;;;5135570;27;20035;-65
2022/11/19 12:53:30;;;;;;;6.78;2.53;;;11.20;99.90;;;;;;5135766;27;20088;-63
2022/11/19 12:55:57;;;;;;;10.00;2.45;;;11.20;99.90;;;;;;5135812;27;20461;-64
2022/11/19 12:58:24;;;;;;;9.95;2.38;;;11.20;99.90;;;;;;5135627;27;20054;-67
2022/11/19 13:00:51;;;;;;;8.80;2.13;;;11.20;99.90;;;;;;5135921;27;20043;-66
2022/11/19 13:03:19;;;;;;;8.43;2.10;;;11.20;99.90;;;;;;5131988;27;20039;-66
2022/11/19 13:05:46;;;;;;;6.47;1.90;;;11.20;99.90;;;;;;5134593;27;20493;-65
2022/11/19 13:08:13;;;;;;;6.47;1.98;;;11.20;99.90;;;;;;5113788;27;20035;-65